sensor_id;sensor_type;location;lat;lon;timestamp;pressure;altitude;pressure_sealevel;temperature;humidity
47260;BME280;32999;52.412;4.890;2023-02-02T00:03:58;102099.31;;;8.48;100.00
47260;BME280;32999;52.412;4.890;2023-02-02T00:09:01;102066.97;;;8.34;100.00
47260;BME280;32999;52.412;4.890;2023-02-02T00:14:04;102070.28;;;8.55;100.00
47260;BME280;32999;52.412;4.890;2023-02-02T00:19:09;102119.06;;;8.75;100.00
47260;BME280;32999;52.412;4.890;2023-02-02T00:24:15;102084.44;;;8.46;100.00
47260;BME280;32999;52.412;4.890;2023-02-02T00:29:20;102131.41;;;8.85;100.00
47260;BME280;32999;52.412;4.890;2023-02-02T00:34:22;102138.59;;;8.66;100.00
47260;BME280;32999;52.412;4.890;2023-02-02T00:39:25;102163.81;;;8.33;100.00
47260;BME280;32999;52.412;4.890;2023-02-02T00:44:27;102144.56;;;8.19;100.00
47260;BME280;32999;52.412;4.890;2023-02-02T00:49:46;102140.91;;;8.20;100.00
47260;BME280;32999;52.412;4.890;2023-02-02T00:54:50;102153.78;;;7.96;100.00
47260;BME280;32999;52.412;4.890;2023-02-02T00:59:51;102062.56;;;7.75;100.00
47260;BME280;32999;52.412;4.890;2023-02-02T01:04:53;102134.78;;;8.49;100.00
47260;BME280;32999;52.412;4.890;2023-02-02T01:09:56;102100.16;;;8.30;100.00
47260;BME280;32999;52.412;4.890;2023-02-02T01:14:58;102139.72;;;8.63;100.00
47260;BME280;32999;52.412;4.890;2023-02-02T01:20:00;102084.75;;;8.33;100.00
47260;BME280;32999;52.412;4.890;2023-02-02T01:25:03;102130.13;;;8.70;100.00
47260;BME280;32999;52.412;4.890;2023-02-02T01:30:06;102126.94;;;8.57;100.00
47260;BME280;32999;52.412;4.890;2023-02-02T01:35:08;102151.34;;;8.62;100.00
47260;BME280;32999;52.412;4.890;2023-02-02T01:40:12;102050.81;;;8.26;100.00
47260;BME280;32999;52.412;4.890;2023-02-02T01:45:22;102148.38;;;8.75;100.00
47260;BME280;32999;52.412;4.890;2023-02-02T01:50:29;102142.06;;;8.85;100.00
47260;BME280;32999;52.412;4.890;2023-02-02T01:55:35;102143.19;;;8.83;100.00
47260;BME280;32999;52.412;4.890;2023-02-02T02:00:38;102113.78;;;8.36;100.00
47260;BME280;32999;52.412;4.890;2023-02-02T02:05:47;102098.78;;;8.35;100.00
47260;BME280;32999;52.412;4.890;2023-02-02T02:10:51;102142.19;;;8.74;100.00
47260;BME280;32999;52.412;4.890;2023-02-02T02:15:56;102138.03;;;8.62;100.00
47260;BME280;32999;52.412;4.890;2023-02-02T02:21:45;102090.19;;;8.51;100.00
47260;BME280;32999;52.412;4.890;2023-02-02T02:32:49;102127.59;;;8.20;100.00
47260;BME280;32999;52.412;4.890;2023-02-02T02:37:57;102114.72;;;8.26;100.00
47260;BME280;32999;52.412;4.890;2023-02-02T02:43:09;102125.94;;;8.29;100.00
47260;BME280;32999;52.412;4.890;2023-02-02T02:48:33;102020.81;;;7.56;100.00
47260;BME280;32999;52.412;4.890;2023-02-02T02:53:35;102138.00;;;8.24;100.00
47260;BME280;32999;52.412;4.890;2023-02-02T02:58:44;102116.69;;;8.14;100.00
47260;BME280;32999;52.412;4.890;2023-02-02T03:04:07;102159.56;;;8.20;100.00
47260;BME280;32999;52.412;4.890;2023-02-02T03:09:13;102144.50;;;8.40;100.00
47260;BME280;32999;52.412;4.890;2023-02-02T03:14:15;102041.00;;;7.78;100.00
47260;BME280;32999;52.412;4.890;2023-02-02T03:19:19;102161.53;;;8.28;100.00
47260;BME280;32999;52.412;4.890;2023-02-02T03:24:21;102145.28;;;8.31;100.00
47260;BME280;32999;52.412;4.890;2023-02-02T03:29:23;102140.38;;;8.27;100.00
47260;BME280;32999;52.412;4.890;2023-02-02T03:34:32;102136.34;;;8.32;100.00
47260;BME280;32999;52.412;4.890;2023-02-02T03:39:34;102125.97;;;8.39;100.00
47260;BME280;32999;52.412;4.890;2023-02-02T03:44:36;102049.69;;;8.09;100.00
47260;BME280;32999;52.412;4.890;2023-02-02T03:49:39;102099.31;;;8.29;100.00
47260;BME280;32999;52.412;4.890;2023-02-02T03:54:41;102127.09;;;8.46;100.00
47260;BME280;32999;52.412;4.890;2023-02-02T03:59:42;102135.78;;;8.58;100.00
47260;BME280;32999;52.412;4.890;2023-02-02T04:04:46;102125.00;;;8.40;100.00
47260;BME280;32999;52.412;4.890;2023-02-02T04:09:48;102068.59;;;8.25;100.00
47260;BME280;32999;52.412;4.890;2023-02-02T04:14:49;102107.44;;;8.28;100.00
47260;BME280;32999;52.412;4.890;2023-02-02T04:19:52;102057.41;;;8.02;100.00
47260;BME280;32999;52.412;4.890;2023-02-02T04:24:57;102115.59;;;8.36;100.00
47260;BME280;32999;52.412;4.890;2023-02-02T04:29:59;102159.19;;;8.54;100.00
47260;BME280;32999;52.412;4.890;2023-02-02T04:35:02;102135.78;;;8.48;100.00
47260;BME280;32999;52.412;4.890;2023-02-02T04:40:05;102100.75;;;8.33;100.00
47260;BME280;32999;52.412;4.890;2023-02-02T04:45:07;102111.13;;;8.36;100.00
47260;BME280;32999;52.412;4.890;2023-02-02T04:50:11;102143.63;;;8.59;100.00
47260;BME280;32999;52.412;4.890;2023-02-02T04:55:13;102148.25;;;8.57;100.00
47260;BME280;32999;52.412;4.890;2023-02-02T05:00:15;102127.09;;;8.36;100.00
47260;BME280;32999;52.412;4.890;2023-02-02T05:05:19;102090.31;;;8.01;100.00
47260;BME280;32999;52.412;4.890;2023-02-02T05:10:20;102152.88;;;8.55;100.00
47260;BME280;32999;52.412;4.890;2023-02-02T05:15:22;102065.66;;;8.18;100.00
47260;BME280;32999;52.412;4.890;2023-02-02T05:20:25;102159.19;;;8.73;100.00
47260;BME280;32999;52.412;4.890;2023-02-02T05:25:27;102064.81;;;8.28;100.00
47260;BME280;32999;52.412;4.890;2023-02-02T05:30:28;102122.88;;;8.63;100.00
47260;BME280;32999;52.412;4.890;2023-02-02T05:35:31;102122.03;;;8.43;100.00
47260;BME280;32999;52.412;4.890;2023-02-02T05:40:33;102158.38;;;8.63;100.00
47260;BME280;32999;52.412;4.890;2023-02-02T05:45:35;102161.31;;;8.60;100.00
47260;BME280;32999;52.412;4.890;2023-02-02T05:50:38;102163.97;;;8.60;100.00
47260;BME280;32999;52.412;4.890;2023-02-02T05:55:40;102157.78;;;8.79;100.00
47260;BME280;32999;52.412;4.890;2023-02-02T06:00:42;102067.06;;;8.23;100.00
47260;BME280;32999;52.412;4.890;2023-02-02T06:05:45;102121.22;;;8.33;100.00
47260;BME280;32999;52.412;4.890;2023-02-02T06:10:47;102129.59;;;8.28;100.00
47260;BME280;32999;52.412;4.890;2023-02-02T06:15:48;102193.00;;;8.73;100.00
47260;BME280;32999;52.412;4.890;2023-02-02T06:20:56;102192.44;;;8.79;100.00
47260;BME280;32999;52.412;4.890;2023-02-02T06:25:58;102200.56;;;8.68;100.00
47260;BME280;32999;52.412;4.890;2023-02-02T06:31:03;102127.03;;;7.98;100.00
47260;BME280;32999;52.412;4.890;2023-02-02T06:36:07;102132.94;;;8.20;100.00
47260;BME280;32999;52.412;4.890;2023-02-02T06:41:09;102127.63;;;8.11;100.00
47260;BME280;32999;52.412;4.890;2023-02-02T06:46:11;102103.19;;;7.77;100.00
47260;BME280;32999;52.412;4.890;2023-02-02T06:51:14;102140.38;;;8.07;100.00
47260;BME280;32999;52.412;4.890;2023-02-02T06:56:16;102215.72;;;8.58;100.00
47260;BME280;32999;52.412;4.890;2023-02-02T07:01:17;102117.63;;;7.94;100.00
47260;BME280;32999;52.412;4.890;2023-02-02T07:06:23;102183.13;;;8.25;100.00
47260;BME280;32999;52.412;4.890;2023-02-02T07:11:25;102141.44;;;7.95;100.00
47260;BME280;32999;52.412;4.890;2023-02-02T07:16:27;102231.16;;;8.54;100.00
47260;BME280;32999;52.412;4.890;2023-02-02T07:21:31;102196.56;;;8.24;100.00
47260;BME280;32999;52.412;4.890;2023-02-02T07:26:35;102252.16;;;8.47;100.00
47260;BME280;32999;52.412;4.890;2023-02-02T07:31:36;102250.69;;;8.24;100.00
47260;BME280;32999;52.412;4.890;2023-02-02T07:36:43;102265.88;;;8.43;100.00
47260;BME280;32999;52.412;4.890;2023-02-02T07:41:47;102149.13;;;7.79;100.00
47260;BME280;32999;52.412;4.890;2023-02-02T07:46:49;102256.91;;;8.44;100.00
47260;BME280;32999;52.412;4.890;2023-02-02T07:51:52;102192.91;;;8.05;100.00
47260;BME280;32999;52.412;4.890;2023-02-02T07:56:54;102279.38;;;8.51;100.00
47260;BME280;32999;52.412;4.890;2023-02-02T08:01:55;102281.09;;;8.62;100.00
47260;BME280;32999;52.412;4.890;2023-02-02T08:06:58;102239.41;;;8.51;100.00
47260;BME280;32999;52.412;4.890;2023-02-02T08:12:00;102273.94;;;8.72;100.00
47260;BME280;32999;52.412;4.890;2023-02-02T08:17:02;102288.66;;;8.66;100.00
47260;BME280;32999;52.412;4.890;2023-02-02T08:22:05;102258.59;;;8.35;100.00
47260;BME280;32999;52.412;4.890;2023-02-02T08:27:07;102287.00;;;8.65;100.00
47260;BME280;32999;52.412;4.890;2023-02-02T08:32:09;102264.00;;;8.83;100.00
47260;BME280;32999;52.412;4.890;2023-02-02T08:37:12;102301.31;;;9.12;100.00
47260;BME280;32999;52.412;4.890;2023-02-02T08:42:13;102294.00;;;9.34;100.00
47260;BME280;32999;52.412;4.890;2023-02-02T08:47:15;102309.72;;;9.27;100.00
47260;BME280;32999;52.412;4.890;2023-02-02T08:52:18;102312.09;;;9.20;100.00
47260;BME280;32999;52.412;4.890;2023-02-02T08:57:20;102228.63;;;8.62;100.00
47260;BME280;32999;52.412;4.890;2023-02-02T09:02:21;102328.25;;;9.19;100.00
47260;BME280;32999;52.412;4.890;2023-02-02T09:07:25;102185.78;;;8.25;100.00
47260;BME280;32999;52.412;4.890;2023-02-02T09:12:26;102340.31;;;9.23;100.00
47260;BME280;32999;52.412;4.890;2023-02-02T09:17:28;102202.34;;;8.29;100.00
47260;BME280;32999;52.412;4.890;2023-02-02T09:22:31;102249.22;;;8.70;100.00
47260;BME280;32999;52.412;4.890;2023-02-02T09:27:36;102359.97;;;9.41;100.00
47260;BME280;32999;52.412;4.890;2023-02-02T09:32:38;102354.38;;;9.35;100.00
47260;BME280;32999;52.412;4.890;2023-02-02T09:37:42;102305.81;;;9.02;100.00
47260;BME280;32999;52.412;4.890;2023-02-02T09:42:53;102265.38;;;8.78;100.00
47260;BME280;32999;52.412;4.890;2023-02-02T09:48:10;102353.78;;;9.60;100.00
47260;BME280;32999;52.412;4.890;2023-02-02T09:53:24;102272.66;;;8.95;100.00
47260;BME280;32999;52.412;4.890;2023-02-02T09:58:30;102230.59;;;8.79;100.00
47260;BME280;32999;52.412;4.890;2023-02-02T10:03:38;102370.59;;;9.80;100.00
47260;BME280;32999;52.412;4.890;2023-02-02T10:08:49;102375.09;;;9.89;100.00
47260;BME280;32999;52.412;4.890;2023-02-02T10:13:57;102345.78;;;9.60;100.00
47260;BME280;32999;52.412;4.890;2023-02-02T10:19:04;102343.06;;;9.70;100.00
47260;BME280;32999;52.412;4.890;2023-02-02T10:24:15;102384.28;;;10.23;100.00
47260;BME280;32999;52.412;4.890;2023-02-02T10:29:30;102296.06;;;9.59;100.00
47260;BME280;32999;52.412;4.890;2023-02-02T10:34:37;102393.41;;;10.31;100.00
47260;BME280;32999;52.412;4.890;2023-02-02T10:39:52;102358.16;;;10.08;100.00
47260;BME280;32999;52.412;4.890;2023-02-02T10:44:58;102351.91;;;10.36;100.00
47260;BME280;32999;52.412;4.890;2023-02-02T10:50:13;102386.31;;;10.67;100.00
47260;BME280;32999;52.412;4.890;2023-02-02T10:55:22;102419.34;;;10.48;100.00
47260;BME280;32999;52.412;4.890;2023-02-02T11:00:29;102366.72;;;10.48;100.00
47260;BME280;32999;52.412;4.890;2023-02-02T11:05:32;102374.72;;;10.58;100.00
47260;BME280;32999;52.412;4.890;2023-02-02T11:10:54;102348.75;;;10.04;100.00
47260;BME280;32999;52.412;4.890;2023-02-02T11:16:21;102258.59;;;9.78;100.00
47260;BME280;32999;52.412;4.890;2023-02-02T11:21:25;102394.72;;;10.81;100.00
47260;BME280;32999;52.412;4.890;2023-02-02T11:26:42;102390.84;;;10.66;100.00
47260;BME280;32999;52.412;4.890;2023-02-02T11:31:45;102406.00;;;10.75;100.00
47260;BME280;32999;52.412;4.890;2023-02-02T11:37:03;102377.44;;;10.94;100.00
47260;BME280;32999;52.412;4.890;2023-02-02T11:42:15;102423.56;;;11.05;100.00
47260;BME280;32999;52.412;4.890;2023-02-02T11:47:20;102399.31;;;11.07;100.00
47260;BME280;32999;52.412;4.890;2023-02-02T11:52:26;102397.81;;;10.77;100.00
47260;BME280;32999;52.412;4.890;2023-02-02T11:57:30;102314.38;;;10.28;100.00
47260;BME280;32999;52.412;4.890;2023-02-02T12:02:33;102402.00;;;10.62;100.00
47260;BME280;32999;52.412;4.890;2023-02-02T12:07:35;102402.44;;;10.57;100.00
47260;BME280;32999;52.412;4.890;2023-02-02T12:12:43;102392.91;;;10.45;100.00
47260;BME280;32999;52.412;4.890;2023-02-02T12:17:54;102267.06;;;9.74;100.00
47260;BME280;32999;52.412;4.890;2023-02-02T12:23:14;102401.53;;;10.66;100.00
47260;BME280;32999;52.412;4.890;2023-02-02T12:28:29;102393.56;;;10.84;100.00
47260;BME280;32999;52.412;4.890;2023-02-02T12:33:42;102387.72;;;10.71;100.00
47260;BME280;32999;52.412;4.890;2023-02-02T12:39:03;102318.03;;;10.27;100.00
47260;BME280;32999;52.412;4.890;2023-02-02T12:44:19;102383.31;;;10.52;100.00
47260;BME280;32999;52.412;4.890;2023-02-02T12:49:35;102368.72;;;10.46;100.00
47260;BME280;32999;52.412;4.890;2023-02-02T12:54:46;102371.72;;;9.87;100.00
47260;BME280;32999;52.412;4.890;2023-02-02T13:00:21;102393.59;;;10.00;100.00
47260;BME280;32999;52.412;4.890;2023-02-02T13:05:44;102394.78;;;9.78;100.00
47260;BME280;32999;52.412;4.890;2023-02-02T13:10:59;102369.53;;;9.53;100.00
47260;BME280;32999;52.412;4.890;2023-02-02T13:16:07;102415.56;;;9.75;100.00
47260;BME280;32999;52.412;4.890;2023-02-02T13:21:11;102409.13;;;9.77;100.00
47260;BME280;32999;52.412;4.890;2023-02-02T13:26:18;102403.78;;;9.68;100.00
47260;BME280;32999;52.412;4.890;2023-02-02T13:31:32;102410.38;;;9.83;100.00
47260;BME280;32999;52.412;4.890;2023-02-02T13:36:38;102316.06;;;9.07;100.00
47260;BME280;32999;52.412;4.890;2023-02-02T13:41:44;102329.09;;;8.91;100.00
47260;BME280;32999;52.412;4.890;2023-02-02T13:46:51;102407.03;;;9.42;100.00
47260;BME280;32999;52.412;4.890;2023-02-02T13:52:11;102404.22;;;9.34;100.00
47260;BME280;32999;52.412;4.890;2023-02-02T13:57:28;102364.19;;;8.86;100.00
47260;BME280;32999;52.412;4.890;2023-02-02T14:02:40;102368.53;;;8.97;100.00
47260;BME280;32999;52.412;4.890;2023-02-02T14:07:47;102439.16;;;9.21;100.00
47260;BME280;32999;52.412;4.890;2023-02-02T14:13:30;102415.72;;;9.25;100.00
47260;BME280;32999;52.412;4.890;2023-02-02T14:19:03;102273.22;;;8.41;100.00
47260;BME280;32999;52.412;4.890;2023-02-02T14:24:43;102280.13;;;8.23;100.00
47260;BME280;32999;52.412;4.890;2023-02-02T14:36:22;102292.91;;;8.29;100.00
47260;BME280;32999;52.412;4.890;2023-02-02T14:42:08;102305.94;;;8.32;100.00
47260;BME280;32999;52.412;4.890;2023-02-02T14:48:04;102364.28;;;8.65;100.00
47260;BME280;32999;52.412;4.890;2023-02-02T14:53:51;102290.13;;;8.00;100.00
47260;BME280;32999;52.412;4.890;2023-02-02T14:59:03;102292.47;;;8.24;100.00
47260;BME280;32999;52.412;4.890;2023-02-02T15:04:25;102305.00;;;8.33;100.00
47260;BME280;32999;52.412;4.890;2023-02-02T15:09:42;102452.97;;;9.36;100.00
47260;BME280;32999;52.412;4.890;2023-02-02T15:14:48;102470.34;;;9.40;100.00
47260;BME280;32999;52.412;4.890;2023-02-02T15:20:11;102405.47;;;9.11;100.00
47260;BME280;32999;52.412;4.890;2023-02-02T15:25:38;102449.72;;;9.42;100.00
47260;BME280;32999;52.412;4.890;2023-02-02T15:31:10;102305.78;;;8.73;100.00
47260;BME280;32999;52.412;4.890;2023-02-02T15:36:18;102437.50;;;9.88;100.00
47260;BME280;32999;52.412;4.890;2023-02-02T15:41:26;102439.47;;;9.76;100.00
47260;BME280;32999;52.412;4.890;2023-02-02T15:46:31;102386.53;;;9.33;100.00
47260;BME280;32999;52.412;4.890;2023-02-02T15:51:35;102451.84;;;9.77;100.00
47260;BME280;32999;52.412;4.890;2023-02-02T15:56:38;102427.25;;;9.45;100.00
47260;BME280;32999;52.412;4.890;2023-02-02T16:01:45;102394.22;;;9.17;100.00
47260;BME280;32999;52.412;4.890;2023-02-02T16:06:48;102486.97;;;9.63;100.00
47260;BME280;32999;52.412;4.890;2023-02-02T16:11:51;102465.19;;;9.68;100.00
47260;BME280;32999;52.412;4.890;2023-02-02T16:16:53;102463.06;;;9.71;100.00
47260;BME280;32999;52.412;4.890;2023-02-02T16:21:59;102476.44;;;9.62;100.00
47260;BME280;32999;52.412;4.890;2023-02-02T16:27:06;102481.03;;;9.40;100.00
47260;BME280;32999;52.412;4.890;2023-02-02T16:32:24;102478.38;;;9.31;100.00
47260;BME280;32999;52.412;4.890;2023-02-02T16:37:30;102375.34;;;8.70;100.00
47260;BME280;32999;52.412;4.890;2023-02-02T16:42:34;102374.16;;;8.44;100.00
47260;BME280;32999;52.412;4.890;2023-02-02T16:47:37;102353.81;;;8.43;100.00
47260;BME280;32999;52.412;4.890;2023-02-02T16:52:48;102503.06;;;9.23;100.00
47260;BME280;32999;52.412;4.890;2023-02-02T16:57:53;102433.50;;;8.96;100.00
47260;BME280;32999;52.412;4.890;2023-02-02T17:02:57;102446.34;;;9.31;100.00
47260;BME280;32999;52.412;4.890;2023-02-02T17:08:02;102499.06;;;9.58;100.00
47260;BME280;32999;52.412;4.890;2023-02-02T17:13:35;102498.47;;;9.73;100.00
47260;BME280;32999;52.412;4.890;2023-02-02T17:18:37;102493.00;;;9.75;100.00
47260;BME280;32999;52.412;4.890;2023-02-02T17:23:39;102508.88;;;9.76;100.00
47260;BME280;32999;52.412;4.890;2023-02-02T17:28:43;102508.31;;;9.73;100.00
47260;BME280;32999;52.412;4.890;2023-02-02T17:33:44;102502.44;;;9.88;100.00
47260;BME280;32999;52.412;4.890;2023-02-02T17:38:46;102495.81;;;9.73;100.00
47260;BME280;32999;52.412;4.890;2023-02-02T17:43:49;102403.22;;;9.06;100.00
47260;BME280;32999;52.412;4.890;2023-02-02T17:48:51;102489.50;;;9.65;100.00
47260;BME280;32999;52.412;4.890;2023-02-02T17:53:53;102490.50;;;9.83;100.00
47260;BME280;32999;52.412;4.890;2023-02-02T17:59:00;102352.38;;;8.98;100.00
47260;BME280;32999;52.412;4.890;2023-02-02T18:04:02;102433.56;;;9.73;100.00
47260;BME280;32999;52.412;4.890;2023-02-02T18:09:05;102468.69;;;9.97;100.00
47260;BME280;32999;52.412;4.890;2023-02-02T18:14:08;102470.06;;;9.92;100.00
47260;BME280;32999;52.412;4.890;2023-02-02T18:19:10;102502.69;;;10.14;100.00
47260;BME280;32999;52.412;4.890;2023-02-02T18:24:12;102466.44;;;10.02;100.00
47260;BME280;32999;52.412;4.890;2023-02-02T18:29:16;102473.31;;;10.05;100.00
47260;BME280;32999;52.412;4.890;2023-02-02T18:34:17;102375.84;;;9.43;100.00
47260;BME280;32999;52.412;4.890;2023-02-02T18:39:19;102485.25;;;10.10;100.00
47260;BME280;32999;52.412;4.890;2023-02-02T18:44:24;102469.94;;;10.12;100.00
47260;BME280;32999;52.412;4.890;2023-02-02T18:49:26;102410.97;;;9.38;100.00
47260;BME280;32999;52.412;4.890;2023-02-02T18:54:27;102472.09;;;9.61;100.00
47260;BME280;32999;52.412;4.890;2023-02-02T18:59:31;102454.06;;;9.92;100.00
47260;BME280;32999;52.412;4.890;2023-02-02T19:04:35;102467.53;;;9.90;100.00
47260;BME280;32999;52.412;4.890;2023-02-02T19:09:36;102445.91;;;9.93;100.00
47260;BME280;32999;52.412;4.890;2023-02-02T19:14:40;102445.50;;;9.88;100.00
47260;BME280;32999;52.412;4.890;2023-02-02T19:19:42;102406.34;;;9.60;100.00
47260;BME280;32999;52.412;4.890;2023-02-02T19:24:44;102445.38;;;9.80;100.00
47260;BME280;32999;52.412;4.890;2023-02-02T19:29:49;102411.94;;;9.57;100.00
47260;BME280;32999;52.412;4.890;2023-02-02T19:34:53;102354.09;;;9.28;100.00
47260;BME280;32999;52.412;4.890;2023-02-02T19:40:15;102439.88;;;9.72;100.00
47260;BME280;32999;52.412;4.890;2023-02-02T19:45:22;102480.78;;;9.82;100.00
47260;BME280;32999;52.412;4.890;2023-02-02T19:50:27;102407.72;;;9.25;100.00
47260;BME280;32999;52.412;4.890;2023-02-02T19:55:34;102477.13;;;9.73;100.00
47260;BME280;32999;52.412;4.890;2023-02-02T20:00:40;102412.91;;;9.17;100.00
47260;BME280;32999;52.412;4.890;2023-02-02T20:05:45;102498.06;;;9.78;100.00
47260;BME280;32999;52.412;4.890;2023-02-02T20:10:48;102499.75;;;9.79;100.00
47260;BME280;32999;52.412;4.890;2023-02-02T20:15:53;102513.22;;;9.68;100.00
47260;BME280;32999;52.412;4.890;2023-02-02T20:20:56;102495.94;;;9.91;100.00
47260;BME280;32999;52.412;4.890;2023-02-02T20:25:59;102422.03;;;9.24;100.00
47260;BME280;32999;52.412;4.890;2023-02-02T20:31:04;102511.16;;;9.81;100.00
47260;BME280;32999;52.412;4.890;2023-02-02T20:36:22;102503.69;;;9.94;100.00
47260;BME280;32999;52.412;4.890;2023-02-02T20:41:26;102494.84;;;9.74;100.00
47260;BME280;32999;52.412;4.890;2023-02-02T20:46:29;102514.34;;;9.94;100.00
47260;BME280;32999;52.412;4.890;2023-02-02T20:51:31;102495.09;;;9.90;100.00
47260;BME280;32999;52.412;4.890;2023-02-02T20:56:33;102442.00;;;9.59;100.00
47260;BME280;32999;52.412;4.890;2023-02-02T21:01:36;102385.97;;;9.39;100.00
47260;BME280;32999;52.412;4.890;2023-02-02T21:06:39;102500.03;;;9.95;100.00
47260;BME280;32999;52.412;4.890;2023-02-02T21:11:40;102499.31;;;9.93;100.00
47260;BME280;32999;52.412;4.890;2023-02-02T21:16:44;102496.78;;;10.01;100.00
47260;BME280;32999;52.412;4.890;2023-02-02T21:21:45;102401.13;;;9.19;100.00
47260;BME280;32999;52.412;4.890;2023-02-02T21:26:47;102370.81;;;9.30;100.00
47260;BME280;32999;52.412;4.890;2023-02-02T21:31:50;102499.59;;;10.00;100.00
47260;BME280;32999;52.412;4.890;2023-02-02T21:36:58;102507.50;;;9.82;100.00
47260;BME280;32999;52.412;4.890;2023-02-02T21:42:10;102507.50;;;9.82;100.00
47260;BME280;32999;52.412;4.890;2023-02-02T21:47:26;102499.75;;;9.98;100.00
47260;BME280;32999;52.412;4.890;2023-02-02T21:52:28;102499.03;;;9.67;100.00
47260;BME280;32999;52.412;4.890;2023-02-02T21:57:34;102483.75;;;9.60;100.00
47260;BME280;32999;52.412;4.890;2023-02-02T22:02:39;102444.81;;;9.47;100.00
47260;BME280;32999;52.412;4.890;2023-02-02T22:07:44;102487.81;;;9.64;100.00
47260;BME280;32999;52.412;4.890;2023-02-02T22:12:46;102441.56;;;9.25;100.00
47260;BME280;32999;52.412;4.890;2023-02-02T22:17:49;102427.38;;;9.14;100.00
47260;BME280;32999;52.412;4.890;2023-02-02T22:22:50;102466.47;;;9.64;100.00
47260;BME280;32999;52.412;4.890;2023-02-02T22:27:53;102477.69;;;9.67;100.00
47260;BME280;32999;52.412;4.890;2023-02-02T22:32:58;102401.16;;;9.39;100.00
47260;BME280;32999;52.412;4.890;2023-02-02T22:38:00;102420.22;;;9.44;100.00
47260;BME280;32999;52.412;4.890;2023-02-02T22:43:04;102295.28;;;8.81;100.00
47260;BME280;32999;52.412;4.890;2023-02-02T22:48:08;102390.03;;;9.53;100.00
47260;BME280;32999;52.412;4.890;2023-02-02T22:53:10;102376.00;;;9.32;100.00
47260;BME280;32999;52.412;4.890;2023-02-02T22:58:13;102264.00;;;8.64;100.00
47260;BME280;32999;52.412;4.890;2023-02-02T23:03:16;102350.59;;;9.08;100.00
47260;BME280;32999;52.412;4.890;2023-02-02T23:08:18;102387.78;;;9.48;100.00
47260;BME280;32999;52.412;4.890;2023-02-02T23:13:19;102401.25;;;9.47;100.00
47260;BME280;32999;52.412;4.890;2023-02-02T23:18:23;102271.28;;;8.62;100.00
47260;BME280;32999;52.412;4.890;2023-02-02T23:23:24;102321.50;;;8.96;100.00
47260;BME280;32999;52.412;4.890;2023-02-02T23:28:26;102347.31;;;8.95;100.00
47260;BME280;32999;52.412;4.890;2023-02-02T23:33:29;102376.53;;;8.87;100.00
47260;BME280;32999;52.412;4.890;2023-02-02T23:38:31;102384.94;;;8.82;100.00
47260;BME280;32999;52.412;4.890;2023-02-02T23:43:33;102411.91;;;8.89;100.00
47260;BME280;32999;52.412;4.890;2023-02-02T23:48:36;102425.13;;;9.10;100.00
47260;BME280;32999;52.412;4.890;2023-02-02T23:53:38;102423.44;;;9.18;100.00
47260;BME280;32999;52.412;4.890;2023-02-02T23:58:40;102435.53;;;9.32;100.00
